createdAt,value
2023-01-07T00:01:49.136Z,73.4
2023-01-07T00:07:49.317Z,73.6
2023-01-07T00:13:49.255Z,73.4
2023-01-07T00:19:49.552Z,73.5
2023-01-07T00:25:50.026Z,73.6
2023-01-07T00:31:49.034Z,73.8
2023-01-07T00:37:49.247Z,73.8
2023-01-07T00:43:49.479Z,73.8
2023-01-07T00:49:49.923Z,73.9
2023-01-07T00:55:49.548Z,73.9
2023-01-07T01:01:49.533Z,74.1
2023-01-07T01:07:48.946Z,74
2023-01-07T01:13:49.685Z,74.1
2023-01-07T01:19:49.802Z,74
2023-01-07T01:25:49.818Z,74.2
2023-01-07T01:31:49.217Z,74.3
2023-01-07T01:37:49.603Z,74.5
2023-01-07T01:43:49.631Z,74.4
2023-01-07T01:49:49.242Z,74.3
2023-01-07T01:55:50.188Z,74.3
2023-01-07T02:01:49.179Z,74.3
2023-01-07T02:07:49.143Z,74.4
2023-01-07T02:13:48.871Z,74.4
2023-01-07T02:19:48.757Z,74.5
2023-01-07T02:25:48.859Z,74.5
2023-01-07T02:31:48.749Z,74.5
2023-01-07T02:37:48.930Z,74.5
2023-01-07T02:43:48.875Z,75.1
2023-01-07T02:49:48.833Z,75
2023-01-07T02:55:49.130Z,75.1
2023-01-07T03:01:48.920Z,75.3
2023-01-07T03:07:48.712Z,75.6
2023-01-07T03:13:48.942Z,76
2023-01-07T03:19:49.152Z,75.6
2023-01-07T03:25:49.492Z,75.5
2023-01-07T03:31:49.313Z,75.4
2023-01-07T03:37:49.142Z,76
2023-01-07T03:43:49.033Z,76.5
2023-01-07T03:49:49.246Z,76.6
2023-01-07T03:55:49.619Z,76.6
2023-01-07T04:01:49.672Z,76.5
2023-01-07T04:07:49.164Z,76.2
2023-01-07T04:13:49.464Z,76.2
2023-01-07T04:19:49.380Z,76.3
2023-01-07T04:25:49.751Z,76.3
2023-01-07T04:31:49.621Z,76.3
2023-01-07T04:37:49.322Z,76.2
2023-01-07T04:43:48.948Z,76.3
2023-01-07T04:49:49.806Z,76.1
2023-01-07T04:55:49.019Z,76.2
2023-01-07T05:01:49.386Z,76
2023-01-07T05:07:49.510Z,76.2
2023-01-07T05:13:50.106Z,76.2
2023-01-07T05:19:49.148Z,76.1
2023-01-07T05:25:49.260Z,75.7
2023-01-07T05:31:49.759Z,75.6
2023-01-07T05:37:50.097Z,75.5
2023-01-07T05:43:49.389Z,75.3
2023-01-07T05:49:49.414Z,75.1
2023-01-07T05:55:49.588Z,74.9
2023-01-07T06:01:49.256Z,74.7
2023-01-07T06:07:49.809Z,74.4
2023-01-07T06:13:49.088Z,74
2023-01-07T06:19:49.727Z,73.8
2023-01-07T06:25:49.226Z,73.7
2023-01-07T06:31:49.715Z,73
2023-01-07T06:37:50.657Z,73
2023-01-07T06:43:49.216Z,72.5
2023-01-07T06:49:49.708Z,72.5
2023-01-07T06:55:49.831Z,72.3
2023-01-07T07:01:49.144Z,72.1
2023-01-07T07:07:49.414Z,72.1
2023-01-07T07:13:49.323Z,71.9
2023-01-07T07:19:49.690Z,71.8
2023-01-07T07:25:50.233Z,72
2023-01-07T07:31:49.311Z,71.8
2023-01-07T07:37:49.656Z,72.1
2023-01-07T07:43:49.300Z,72.2
2023-01-07T07:49:49.783Z,72.4
2023-01-07T07:55:49.052Z,72.5
2023-01-07T08:01:49.305Z,72.9
2023-01-07T08:07:49.630Z,73
2023-01-07T08:13:49.056Z,73.6
2023-01-07T08:19:49.667Z,73.2
2023-01-07T08:25:49.272Z,72.8
2023-01-07T08:31:49.217Z,72.6
2023-01-07T08:37:50.202Z,72.7
2023-01-07T08:43:49.139Z,72.2
2023-01-07T08:49:49.441Z,71.9
2023-01-07T08:55:50.208Z,72.1
2023-01-07T09:01:49.596Z,71.9
2023-01-07T09:07:49.375Z,71.8
2023-01-07T09:13:49.181Z,70.8
2023-01-07T09:19:49.779Z,70.4
2023-01-07T09:25:49.045Z,69.8
2023-01-07T09:31:49.524Z,69.4
2023-01-07T09:37:49.752Z,69.1
2023-01-07T09:44:00.863Z,68.8
2023-01-07T09:49:48.911Z,68.8
2023-01-07T09:56:11.871Z,67.4
2023-01-07T10:01:49.292Z,66.3
2023-01-07T10:07:48.810Z,65.8
2023-01-07T10:13:48.870Z,64.7
2023-01-07T10:19:48.757Z,63.9
2023-01-07T10:25:49.017Z,63.5
2023-01-07T10:31:49.150Z,63.9
2023-01-07T10:37:49.112Z,63.7
2023-01-07T10:43:48.857Z,63.5
2023-01-07T10:49:48.833Z,62.6
2023-01-07T10:55:48.772Z,63.1
2023-01-07T11:01:49.231Z,63.1
2023-01-07T11:07:49.713Z,63.7
2023-01-07T11:13:48.996Z,64
2023-01-07T11:19:49.002Z,64.2
2023-01-07T11:25:49.342Z,64.2
2023-01-07T11:31:48.965Z,64.1
2023-01-07T11:37:49.173Z,64.2
2023-01-07T11:43:49.055Z,64.1
2023-01-07T11:49:48.902Z,64.4
2023-01-07T11:55:48.980Z,64.7
2023-01-07T12:01:49.041Z,64.7
2023-01-07T12:07:49.237Z,63.9
2023-01-07T12:13:48.987Z,63.4
2023-01-07T12:19:49.209Z,63.4
2023-01-07T12:25:48.837Z,63.5
2023-01-07T12:31:49.039Z,63.5
2023-01-07T12:37:49.024Z,61.8
2023-01-07T12:43:48.886Z,61.8
2023-01-07T12:49:49.198Z,61.7
2023-01-07T12:55:49.089Z,61.5
2023-01-07T13:01:49.049Z,61.6
2023-01-07T13:07:48.874Z,61.6
2023-01-07T13:13:49.254Z,61.2
2023-01-07T13:19:49.086Z,60.3
2023-01-07T13:25:48.870Z,60.5
2023-01-07T13:31:48.991Z,60.5
2023-01-07T13:37:48.844Z,60.5
2023-01-07T13:43:48.852Z,60.5
2023-01-07T13:49:57.055Z,61.2
2023-01-07T13:55:49.243Z,61.4
2023-01-07T14:01:48.976Z,61.4
2023-01-07T14:07:48.963Z,61.4
2023-01-07T14:13:48.966Z,60.3
2023-01-07T14:19:48.771Z,60.3
2023-01-07T14:25:48.807Z,60.3
2023-01-07T14:31:48.878Z,57.1
2023-01-07T14:37:49.088Z,57.3
2023-01-07T14:43:48.882Z,56.6
2023-01-07T14:49:48.741Z,56.6
2023-01-07T14:55:48.860Z,56.6
2023-01-07T15:01:49.118Z,56.6
2023-01-07T15:07:48.789Z,56.6
2023-01-07T15:13:49.065Z,57.6
2023-01-07T15:19:49.254Z,58.3
2023-01-07T15:25:48.858Z,58.2
2023-01-07T15:31:48.927Z,58.9
2023-01-07T15:37:49.359Z,59.3
2023-01-07T15:43:49.267Z,59.8
2023-01-07T15:49:49.390Z,60.3
2023-01-07T15:55:49.245Z,60.5
2023-01-07T16:01:49.267Z,61.1
2023-01-07T16:07:49.221Z,61.2
2023-01-07T16:13:49.669Z,61.6
2023-01-07T16:19:49.631Z,62.1
2023-01-07T16:25:49.168Z,62.3
2023-01-07T16:31:49.289Z,62.6
2023-01-07T16:37:49.482Z,62.8
2023-01-07T16:43:49.364Z,62.9
2023-01-07T16:49:49.097Z,63
2023-01-07T16:55:49.156Z,63.1
2023-01-07T17:01:49.144Z,63.5
2023-01-07T17:07:49.596Z,63.9
2023-01-07T17:13:49.220Z,64
2023-01-07T17:19:48.975Z,64.2
2023-01-07T17:25:48.996Z,64.1
2023-01-07T17:31:49.185Z,64.4
2023-01-07T17:37:49.685Z,64.4
2023-01-07T17:43:49.451Z,64.4
2023-01-07T17:49:49.112Z,64.3
2023-01-07T17:55:49.077Z,64.3
2023-01-07T18:01:49.703Z,64.9
2023-01-07T18:07:49.597Z,64.8
2023-01-07T18:13:49.366Z,64.7
2023-01-07T18:19:49.279Z,64.7
2023-01-07T18:25:49.881Z,64.7
2023-01-07T18:31:49.216Z,64.6
2023-01-07T18:37:49.671Z,64.7
2023-01-07T18:43:49.745Z,64.4
2023-01-07T18:49:49.240Z,64
2023-01-07T18:55:49.145Z,63.8
2023-01-07T19:01:49.600Z,63.8
2023-01-07T19:07:49.357Z,64.2
2023-01-07T19:13:49.550Z,64.3
2023-01-07T19:19:49.366Z,64.2
2023-01-07T19:25:50.069Z,63.9
2023-01-07T19:31:49.530Z,64
2023-01-07T19:37:49.116Z,63.8
2023-01-07T19:43:49.115Z,63.6
2023-01-07T19:49:49.634Z,63.7
2023-01-07T19:55:49.333Z,63.6
2023-01-07T20:01:49.392Z,64
2023-01-07T20:07:49.679Z,63.8
2023-01-07T20:13:51.302Z,63.9
2023-01-07T20:19:50.412Z,63.4
2023-01-07T20:25:49.233Z,62.9
2023-01-07T20:31:49.150Z,62.6
2023-01-07T20:37:49.341Z,62.6
2023-01-07T20:43:49.202Z,61.3
2023-01-07T20:49:50.419Z,60.9
2023-01-07T20:55:49.688Z,61
2023-01-07T21:01:49.684Z,61.3
2023-01-07T21:07:49.525Z,61.7
2023-01-07T21:13:49.290Z,61.8
2023-01-07T21:19:49.240Z,61.8
2023-01-07T21:25:49.261Z,62
2023-01-07T21:31:49.588Z,62
2023-01-07T21:37:49.823Z,62.3
2023-01-07T21:43:50.571Z,62.4
2023-01-07T21:49:49.394Z,62.5
2023-01-07T21:55:49.935Z,62.6
2023-01-07T22:01:49.576Z,62.8
2023-01-07T22:07:49.580Z,62.9
2023-01-07T22:13:49.392Z,63.1
2023-01-07T22:19:49.679Z,63.2
2023-01-07T22:25:49.088Z,63.5
2023-01-07T22:31:49.523Z,63.8
2023-01-07T22:37:49.365Z,64.1
2023-01-07T22:43:49.416Z,64.7
2023-01-07T22:49:49.722Z,64.9
2023-01-07T22:55:49.204Z,65.1
2023-01-07T23:01:49.209Z,65.3
2023-01-07T23:07:49.544Z,65.4
2023-01-07T23:13:49.268Z,66
2023-01-07T23:19:49.764Z,66.1
2023-01-07T23:25:49.935Z,66.2
2023-01-07T23:31:49.564Z,66.4
2023-01-07T23:37:49.814Z,66.7
2023-01-07T23:43:49.523Z,67
2023-01-07T23:49:49.632Z,67.1
2023-01-07T23:55:49.732Z,67.4
